sensor_id;sensor_type;location;lat;lon;timestamp;P1;durP1;ratioP1;P2;durP2;ratioP2
23573;SDS011;11965;53.640;10.050;2022-08-11T00:01:47;4.00;;;2.53;;
23573;SDS011;11965;53.640;10.050;2022-08-11T00:04:15;5.75;;;2.85;;
23573;SDS011;11965;53.640;10.050;2022-08-11T00:06:44;3.13;;;2.72;;
23573;SDS011;11965;53.640;10.050;2022-08-11T00:09:16;3.92;;;2.63;;
23573;SDS011;11965;53.640;10.050;2022-08-11T00:11:50;3.75;;;2.80;;
23573;SDS011;11965;53.640;10.050;2022-08-11T00:14:25;6.38;;;2.78;;
23573;SDS011;11965;53.640;10.050;2022-08-11T00:17:03;3.72;;;2.65;;
23573;SDS011;11965;53.640;10.050;2022-08-11T00:19:39;3.97;;;2.55;;
23573;SDS011;11965;53.640;10.050;2022-08-11T00:22:08;4.38;;;2.78;;
23573;SDS011;11965;53.640;10.050;2022-08-11T00:24:39;4.97;;;2.42;;
23573;SDS011;11965;53.640;10.050;2022-08-11T00:27:05;4.50;;;2.83;;
23573;SDS011;11965;53.640;10.050;2022-08-11T00:29:32;3.75;;;2.60;;
23573;SDS011;11965;53.640;10.050;2022-08-11T00:31:59;5.22;;;3.13;;
23573;SDS011;11965;53.640;10.050;2022-08-11T00:34:27;4.78;;;2.65;;
23573;SDS011;11965;53.640;10.050;2022-08-11T00:37:03;6.53;;;2.88;;
23573;SDS011;11965;53.640;10.050;2022-08-11T00:39:33;7.20;;;2.67;;
23573;SDS011;11965;53.640;10.050;2022-08-11T00:44:49;3.10;;;2.80;;
23573;SDS011;11965;53.640;10.050;2022-08-11T00:50:06;3.72;;;2.65;;
23573;SDS011;11965;53.640;10.050;2022-08-11T00:58:08;4.82;;;2.55;;
23573;SDS011;11965;53.640;10.050;2022-08-11T01:01:30;3.80;;;2.63;;
23573;SDS011;11965;53.640;10.050;2022-08-11T01:06:56;5.00;;;2.85;;
23573;SDS011;11965;53.640;10.050;2022-08-11T01:21:05;3.75;;;2.90;;
23573;SDS011;11965;53.640;10.050;2022-08-11T01:38:26;4.25;;;2.70;;
23573;SDS011;11965;53.640;10.050;2022-08-11T01:41:21;5.45;;;2.63;;
23573;SDS011;11965;53.640;10.050;2022-08-11T01:47:18;6.40;;;2.70;;
23573;SDS011;11965;53.640;10.050;2022-08-11T01:58:35;3.13;;;2.83;;
23573;SDS011;11965;53.640;10.050;2022-08-11T02:07:16;4.05;;;2.72;;
23573;SDS011;11965;53.640;10.050;2022-08-11T02:12:59;3.75;;;2.90;;
23573;SDS011;11965;53.640;10.050;2022-08-11T02:15:49;3.45;;;3.00;;
23573;SDS011;11965;53.640;10.050;2022-08-11T02:18:23;4.18;;;2.65;;
23573;SDS011;11965;53.640;10.050;2022-08-11T02:21:18;3.15;;;2.65;;
23573;SDS011;11965;53.640;10.050;2022-08-11T02:24:28;4.25;;;3.33;;
23573;SDS011;11965;53.640;10.050;2022-08-11T02:27:18;6.88;;;2.92;;
23573;SDS011;11965;53.640;10.050;2022-08-11T02:32:34;4.15;;;2.90;;
23573;SDS011;11965;53.640;10.050;2022-08-11T02:35:27;3.33;;;2.97;;
23573;SDS011;11965;53.640;10.050;2022-08-11T02:48:55;4.15;;;2.88;;
23573;SDS011;11965;53.640;10.050;2022-08-11T02:54:37;3.53;;;2.85;;
23573;SDS011;11965;53.640;10.050;2022-08-11T02:59:55;5.28;;;2.78;;
23573;SDS011;11965;53.640;10.050;2022-08-11T03:14:21;4.30;;;2.70;;
23573;SDS011;11965;53.640;10.050;2022-08-11T03:22:46;3.30;;;2.97;;
23573;SDS011;11965;53.640;10.050;2022-08-11T03:25:26;3.40;;;2.83;;
23573;SDS011;11965;53.640;10.050;2022-08-11T03:28:05;4.03;;;2.92;;
23573;SDS011;11965;53.640;10.050;2022-08-11T03:33:24;3.25;;;2.95;;
23573;SDS011;11965;53.640;10.050;2022-08-11T03:54:53;6.53;;;3.20;;
23573;SDS011;11965;53.640;10.050;2022-08-11T04:17:49;4.75;;;2.65;;
23573;SDS011;11965;53.640;10.050;2022-08-11T04:22:47;6.82;;;2.97;;
23573;SDS011;11965;53.640;10.050;2022-08-11T04:31:07;3.65;;;3.03;;
23573;SDS011;11965;53.640;10.050;2022-08-11T04:45:33;4.72;;;3.00;;
23573;SDS011;11965;53.640;10.050;2022-08-11T04:51:09;6.63;;;3.20;;
23573;SDS011;11965;53.640;10.050;2022-08-11T04:57:35;5.00;;;2.88;;
23573;SDS011;11965;53.640;10.050;2022-08-11T05:00:21;3.38;;;2.80;;
23573;SDS011;11965;53.640;10.050;2022-08-11T05:03:24;5.38;;;3.58;;
23573;SDS011;11965;53.640;10.050;2022-08-11T05:06:09;4.68;;;3.40;;
23573;SDS011;11965;53.640;10.050;2022-08-11T05:16:57;5.15;;;3.45;;
23573;SDS011;11965;53.640;10.050;2022-08-11T05:19:46;4.25;;;3.30;;
23573;SDS011;11965;53.640;10.050;2022-08-11T05:22:31;5.10;;;3.20;;
23573;SDS011;11965;53.640;10.050;2022-08-11T05:25:17;3.35;;;3.05;;
23573;SDS011;11965;53.640;10.050;2022-08-11T05:28:12;4.13;;;3.22;;
23573;SDS011;11965;53.640;10.050;2022-08-11T05:30:59;3.80;;;3.10;;
23573;SDS011;11965;53.640;10.050;2022-08-11T05:33:48;4.43;;;3.40;;
23573;SDS011;11965;53.640;10.050;2022-08-11T05:36:52;5.22;;;3.60;;
23573;SDS011;11965;53.640;10.050;2022-08-11T05:39:22;3.33;;;3.03;;
23573;SDS011;11965;53.640;10.050;2022-08-11T05:42:08;4.75;;;3.40;;
23573;SDS011;11965;53.640;10.050;2022-08-11T05:44:54;3.83;;;3.25;;
23573;SDS011;11965;53.640;10.050;2022-08-11T05:47:44;3.70;;;3.22;;
23573;SDS011;11965;53.640;10.050;2022-08-11T05:50:32;4.72;;;2.97;;
23573;SDS011;11965;53.640;10.050;2022-08-11T05:53:16;4.47;;;3.38;;
23573;SDS011;11965;53.640;10.050;2022-08-11T05:56:03;3.88;;;3.00;;
23573;SDS011;11965;53.640;10.050;2022-08-11T05:58:51;6.70;;;3.15;;
23573;SDS011;11965;53.640;10.050;2022-08-11T06:01:21;4.38;;;3.15;;
23573;SDS011;11965;53.640;10.050;2022-08-11T06:03:48;4.22;;;3.13;;
23573;SDS011;11965;53.640;10.050;2022-08-11T06:06:35;3.08;;;2.78;;
23573;SDS011;11965;53.640;10.050;2022-08-11T06:09:04;6.22;;;3.08;;
23573;SDS011;11965;53.640;10.050;2022-08-11T06:11:36;4.93;;;3.20;;
23573;SDS011;11965;53.640;10.050;2022-08-11T06:14:05;4.38;;;2.97;;
23573;SDS011;11965;53.640;10.050;2022-08-11T06:16:32;4.20;;;2.92;;
23573;SDS011;11965;53.640;10.050;2022-08-11T06:18:59;4.18;;;2.75;;
23573;SDS011;11965;53.640;10.050;2022-08-11T06:21:27;3.97;;;2.80;;
23573;SDS011;11965;53.640;10.050;2022-08-11T06:23:52;3.65;;;2.85;;
23573;SDS011;11965;53.640;10.050;2022-08-11T06:26:19;5.28;;;3.08;;
23573;SDS011;11965;53.640;10.050;2022-08-11T06:28:46;4.45;;;3.13;;
23573;SDS011;11965;53.640;10.050;2022-08-11T06:31:14;3.83;;;2.70;;
23573;SDS011;11965;53.640;10.050;2022-08-11T06:41:44;3.38;;;2.47;;
23573;SDS011;11965;53.640;10.050;2022-08-11T06:44:15;3.65;;;2.80;;
23573;SDS011;11965;53.640;10.050;2022-08-11T06:46:49;4.32;;;2.60;;
23573;SDS011;11965;53.640;10.050;2022-08-11T06:49:18;5.05;;;2.78;;
23573;SDS011;11965;53.640;10.050;2022-08-11T06:52:05;4.53;;;2.67;;
23573;SDS011;11965;53.640;10.050;2022-08-11T06:54:35;3.33;;;2.50;;
23573;SDS011;11965;53.640;10.050;2022-08-11T06:57:05;5.65;;;2.78;;
23573;SDS011;11965;53.640;10.050;2022-08-11T06:59:55;5.82;;;2.30;;
23573;SDS011;11965;53.640;10.050;2022-08-11T07:05:29;2.67;;;2.40;;
23573;SDS011;11965;53.640;10.050;2022-08-11T07:14:32;2.85;;;2.33;;
23573;SDS011;11965;53.640;10.050;2022-08-11T07:17:19;3.63;;;2.13;;
23573;SDS011;11965;53.640;10.050;2022-08-11T07:19:55;3.05;;;2.40;;
23573;SDS011;11965;53.640;10.050;2022-08-11T07:22:42;2.40;;;2.10;;
23573;SDS011;11965;53.640;10.050;2022-08-11T07:25:32;3.17;;;2.25;;
23573;SDS011;11965;53.640;10.050;2022-08-11T07:28:25;4.72;;;2.25;;
23573;SDS011;11965;53.640;10.050;2022-08-11T07:31:31;8.35;;;2.42;;
23573;SDS011;11965;53.640;10.050;2022-08-11T07:34:27;2.55;;;2.00;;
23573;SDS011;11965;53.640;10.050;2022-08-11T07:36:59;3.60;;;2.37;;
23573;SDS011;11965;53.640;10.050;2022-08-11T07:39:33;4.07;;;2.30;;
23573;SDS011;11965;53.640;10.050;2022-08-11T07:42:06;1.88;;;1.73;;
23573;SDS011;11965;53.640;10.050;2022-08-11T07:44:34;4.18;;;2.15;;
23573;SDS011;11965;53.640;10.050;2022-08-11T07:47:23;2.85;;;2.50;;
23573;SDS011;11965;53.640;10.050;2022-08-11T07:50:09;3.28;;;2.13;;
23573;SDS011;11965;53.640;10.050;2022-08-11T07:52:53;4.53;;;1.88;;
23573;SDS011;11965;53.640;10.050;2022-08-11T07:55:22;3.13;;;2.28;;
23573;SDS011;11965;53.640;10.050;2022-08-11T07:57:58;4.10;;;2.42;;
23573;SDS011;11965;53.640;10.050;2022-08-11T08:00:45;2.47;;;2.25;;
23573;SDS011;11965;53.640;10.050;2022-08-11T08:03:32;3.55;;;2.25;;
23573;SDS011;11965;53.640;10.050;2022-08-11T08:06:17;4.55;;;2.30;;
23573;SDS011;11965;53.640;10.050;2022-08-11T08:09:02;3.28;;;2.08;;
23573;SDS011;11965;53.640;10.050;2022-08-11T08:11:48;4.25;;;2.13;;
23573;SDS011;11965;53.640;10.050;2022-08-11T08:14:34;3.13;;;1.90;;
23573;SDS011;11965;53.640;10.050;2022-08-11T08:17:20;3.08;;;2.25;;
23573;SDS011;11965;53.640;10.050;2022-08-11T08:20:06;4.20;;;2.20;;
23573;SDS011;11965;53.640;10.050;2022-08-11T08:22:36;3.50;;;2.20;;
23573;SDS011;11965;53.640;10.050;2022-08-11T08:25:04;2.72;;;2.15;;
23573;SDS011;11965;53.640;10.050;2022-08-11T08:27:31;6.22;;;2.03;;
23573;SDS011;11965;53.640;10.050;2022-08-11T08:30:07;3.67;;;2.38;;
23573;SDS011;11965;53.640;10.050;2022-08-11T08:33:01;4.75;;;2.03;;
23573;SDS011;11965;53.640;10.050;2022-08-11T08:35:27;2.85;;;2.25;;
23573;SDS011;11965;53.640;10.050;2022-08-11T08:37:55;2.65;;;2.08;;
23573;SDS011;11965;53.640;10.050;2022-08-11T08:40:22;3.60;;;1.90;;
23573;SDS011;11965;53.640;10.050;2022-08-11T08:42:50;4.45;;;2.30;;
23573;SDS011;11965;53.640;10.050;2022-08-11T08:45:19;7.07;;;2.25;;
23573;SDS011;11965;53.640;10.050;2022-08-11T08:47:47;3.10;;;2.08;;
23573;SDS011;11965;53.640;10.050;2022-08-11T08:50:20;4.38;;;2.72;;
23573;SDS011;11965;53.640;10.050;2022-08-11T08:52:57;2.95;;;2.33;;
23573;SDS011;11965;53.640;10.050;2022-08-11T08:55:28;4.68;;;2.40;;
23573;SDS011;11965;53.640;10.050;2022-08-11T08:57:55;4.18;;;2.00;;
23573;SDS011;11965;53.640;10.050;2022-08-11T09:00:24;6.18;;;2.10;;
23573;SDS011;11965;53.640;10.050;2022-08-11T09:03:03;4.00;;;2.00;;
23573;SDS011;11965;53.640;10.050;2022-08-11T09:05:28;4.45;;;2.28;;
23573;SDS011;11965;53.640;10.050;2022-08-11T09:07:54;4.85;;;2.25;;
23573;SDS011;11965;53.640;10.050;2022-08-11T09:10:22;2.10;;;1.73;;
23573;SDS011;11965;53.640;10.050;2022-08-11T09:12:49;2.05;;;1.80;;
23573;SDS011;11965;53.640;10.050;2022-08-11T09:15:15;3.33;;;2.00;;
23573;SDS011;11965;53.640;10.050;2022-08-11T09:20:18;5.22;;;1.70;;
23573;SDS011;11965;53.640;10.050;2022-08-11T09:22:47;2.15;;;1.63;;
23573;SDS011;11965;53.640;10.050;2022-08-11T09:25:32;4.20;;;1.98;;
23573;SDS011;11965;53.640;10.050;2022-08-11T09:28:19;2.60;;;2.00;;
23573;SDS011;11965;53.640;10.050;2022-08-11T09:30:48;2.17;;;1.88;;
23573;SDS011;11965;53.640;10.050;2022-08-11T09:33:19;4.93;;;2.00;;
23573;SDS011;11965;53.640;10.050;2022-08-11T09:35:46;2.30;;;1.80;;
23573;SDS011;11965;53.640;10.050;2022-08-11T09:38:14;2.40;;;1.60;;
23573;SDS011;11965;53.640;10.050;2022-08-11T09:41:01;2.78;;;1.83;;
23573;SDS011;11965;53.640;10.050;2022-08-11T09:43:29;2.17;;;1.80;;
23573;SDS011;11965;53.640;10.050;2022-08-11T09:46:14;2.28;;;1.90;;
23573;SDS011;11965;53.640;10.050;2022-08-11T09:48:42;6.40;;;2.17;;
23573;SDS011;11965;53.640;10.050;2022-08-11T09:51:10;5.43;;;2.30;;
23573;SDS011;11965;53.640;10.050;2022-08-11T09:53:39;8.55;;;1.98;;
23573;SDS011;11965;53.640;10.050;2022-08-11T09:56:10;2.38;;;2.17;;
23573;SDS011;11965;53.640;10.050;2022-08-11T09:59:03;5.38;;;2.40;;
23573;SDS011;11965;53.640;10.050;2022-08-11T10:01:33;2.15;;;2.00;;
23573;SDS011;11965;53.640;10.050;2022-08-11T10:04:13;6.00;;;2.00;;
23573;SDS011;11965;53.640;10.050;2022-08-11T10:06:41;4.07;;;1.90;;
23573;SDS011;11965;53.640;10.050;2022-08-11T10:09:27;2.03;;;1.85;;
23573;SDS011;11965;53.640;10.050;2022-08-11T10:11:59;2.95;;;1.80;;
23573;SDS011;11965;53.640;10.050;2022-08-11T10:14:27;3.08;;;2.00;;
23573;SDS011;11965;53.640;10.050;2022-08-11T10:17:14;3.30;;;1.98;;
23573;SDS011;11965;53.640;10.050;2022-08-11T10:19:44;2.53;;;1.77;;
23573;SDS011;11965;53.640;10.050;2022-08-11T10:22:11;3.53;;;2.00;;
23573;SDS011;11965;53.640;10.050;2022-08-11T10:24:58;1.95;;;1.80;;
23573;SDS011;11965;53.640;10.050;2022-08-11T10:27:43;1.90;;;1.73;;
23573;SDS011;11965;53.640;10.050;2022-08-11T10:30:11;5.68;;;1.88;;
23573;SDS011;11965;53.640;10.050;2022-08-11T10:32:56;2.33;;;1.70;;
23573;SDS011;11965;53.640;10.050;2022-08-11T10:35:42;2.30;;;1.85;;
23573;SDS011;11965;53.640;10.050;2022-08-11T10:38:09;1.98;;;1.77;;
23573;SDS011;11965;53.640;10.050;2022-08-11T10:40:39;2.33;;;1.70;;
23573;SDS011;11965;53.640;10.050;2022-08-11T10:43:05;2.10;;;1.90;;
23573;SDS011;11965;53.640;10.050;2022-08-11T10:45:46;3.88;;;2.00;;
23573;SDS011;11965;53.640;10.050;2022-08-11T10:48:34;1.83;;;1.60;;
23573;SDS011;11965;53.640;10.050;2022-08-11T10:51:02;3.00;;;1.90;;
23573;SDS011;11965;53.640;10.050;2022-08-11T10:53:47;4.57;;;2.03;;
23573;SDS011;11965;53.640;10.050;2022-08-11T10:56:36;4.85;;;2.50;;
23573;SDS011;11965;53.640;10.050;2022-08-11T10:59:25;2.33;;;2.10;;
23573;SDS011;11965;53.640;10.050;2022-08-11T11:01:54;2.20;;;2.00;;
23573;SDS011;11965;53.640;10.050;2022-08-11T11:04:26;4.20;;;1.88;;
23573;SDS011;11965;53.640;10.050;2022-08-11T11:07:21;2.85;;;2.00;;
23573;SDS011;11965;53.640;10.050;2022-08-11T11:09:56;2.95;;;1.92;;
23573;SDS011;11965;53.640;10.050;2022-08-11T11:12:32;2.17;;;1.88;;
23573;SDS011;11965;53.640;10.050;2022-08-11T11:15:20;2.78;;;1.80;;
23573;SDS011;11965;53.640;10.050;2022-08-11T11:18:11;5.03;;;2.00;;
23573;SDS011;11965;53.640;10.050;2022-08-11T11:20:56;2.85;;;1.50;;
23573;SDS011;11965;53.640;10.050;2022-08-11T11:32:08;1.58;;;1.48;;
23573;SDS011;11965;53.640;10.050;2022-08-11T11:37:53;3.50;;;1.50;;
23573;SDS011;11965;53.640;10.050;2022-08-11T11:40:21;3.20;;;1.50;;
23573;SDS011;11965;53.640;10.050;2022-08-11T11:42:51;1.95;;;1.63;;
23573;SDS011;11965;53.640;10.050;2022-08-11T11:45:20;1.65;;;1.55;;
23573;SDS011;11965;53.640;10.050;2022-08-11T11:47:48;3.22;;;1.65;;
23573;SDS011;11965;53.640;10.050;2022-08-11T11:50:17;2.60;;;1.50;;
23573;SDS011;11965;53.640;10.050;2022-08-11T11:52:48;1.42;;;1.33;;
23573;SDS011;11965;53.640;10.050;2022-08-11T11:55:14;1.48;;;1.38;;
23573;SDS011;11965;53.640;10.050;2022-08-11T11:57:42;3.15;;;1.80;;
23573;SDS011;11965;53.640;10.050;2022-08-11T12:00:27;3.95;;;2.00;;
23573;SDS011;11965;53.640;10.050;2022-08-11T12:03:13;1.88;;;1.52;;
23573;SDS011;11965;53.640;10.050;2022-08-11T12:05:39;1.95;;;1.30;;
23573;SDS011;11965;53.640;10.050;2022-08-11T12:08:07;4.05;;;1.30;;
23573;SDS011;11965;53.640;10.050;2022-08-11T12:13:11;3.47;;;1.63;;
23573;SDS011;11965;53.640;10.050;2022-08-11T12:15:57;2.17;;;1.55;;
23573;SDS011;11965;53.640;10.050;2022-08-11T12:18:28;3.63;;;1.70;;
23573;SDS011;11965;53.640;10.050;2022-08-11T12:20:57;3.50;;;1.40;;
23573;SDS011;11965;53.640;10.050;2022-08-11T12:23:25;2.03;;;1.55;;
23573;SDS011;11965;53.640;10.050;2022-08-11T12:26:09;3.45;;;1.70;;
23573;SDS011;11965;53.640;10.050;2022-08-11T12:28:58;2.20;;;1.30;;
23573;SDS011;11965;53.640;10.050;2022-08-11T12:31:25;2.83;;;1.55;;
23573;SDS011;11965;53.640;10.050;2022-08-11T12:33:59;1.75;;;1.50;;
23573;SDS011;11965;53.640;10.050;2022-08-11T12:36:34;2.97;;;1.52;;
23573;SDS011;11965;53.640;10.050;2022-08-11T12:39:09;2.42;;;1.60;;
23573;SDS011;11965;53.640;10.050;2022-08-11T12:41:37;1.83;;;1.50;;
23573;SDS011;11965;53.640;10.050;2022-08-11T12:44:23;1.45;;;1.35;;
23573;SDS011;11965;53.640;10.050;2022-08-11T12:47:10;2.90;;;1.48;;
23573;SDS011;11965;53.640;10.050;2022-08-11T12:49:40;2.63;;;1.30;;
23573;SDS011;11965;53.640;10.050;2022-08-11T12:52:29;2.35;;;1.30;;
23573;SDS011;11965;53.640;10.050;2022-08-11T12:55:04;1.70;;;1.50;;
23573;SDS011;11965;53.640;10.050;2022-08-11T12:57:54;2.22;;;1.30;;
23573;SDS011;11965;53.640;10.050;2022-08-11T13:00:39;3.47;;;1.50;;
23573;SDS011;11965;53.640;10.050;2022-08-11T13:03:23;3.45;;;1.50;;
23573;SDS011;11965;53.640;10.050;2022-08-11T13:06:07;2.88;;;1.50;;
23573;SDS011;11965;53.640;10.050;2022-08-11T13:08:34;1.60;;;1.40;;
23573;SDS011;11965;53.640;10.050;2022-08-11T13:11:02;1.92;;;1.73;;
23573;SDS011;11965;53.640;10.050;2022-08-11T13:13:47;2.17;;;1.35;;
23573;SDS011;11965;53.640;10.050;2022-08-11T13:16:14;4.47;;;1.50;;
23573;SDS011;11965;53.640;10.050;2022-08-11T13:18:42;1.70;;;1.60;;
23573;SDS011;11965;53.640;10.050;2022-08-11T13:21:09;4.43;;;1.30;;
23573;SDS011;11965;53.640;10.050;2022-08-11T13:23:37;1.58;;;1.38;;
23573;SDS011;11965;53.640;10.050;2022-08-11T13:26:04;2.85;;;1.50;;
23573;SDS011;11965;53.640;10.050;2022-08-11T13:28:33;3.35;;;1.40;;
23573;SDS011;11965;53.640;10.050;2022-08-11T13:31:00;1.40;;;1.30;;
23573;SDS011;11965;53.640;10.050;2022-08-11T13:33:43;3.25;;;1.50;;
23573;SDS011;11965;53.640;10.050;2022-08-11T13:36:13;2.78;;;1.50;;
23573;SDS011;11965;53.640;10.050;2022-08-11T13:38:44;2.88;;;1.50;;
23573;SDS011;11965;53.640;10.050;2022-08-11T13:41:12;3.83;;;1.60;;
23573;SDS011;11965;53.640;10.050;2022-08-11T13:43:56;4.28;;;1.80;;
23573;SDS011;11965;53.640;10.050;2022-08-11T13:46:23;2.13;;;1.45;;
23573;SDS011;11965;53.640;10.050;2022-08-11T13:48:52;3.47;;;1.40;;
23573;SDS011;11965;53.640;10.050;2022-08-11T13:51:21;4.78;;;1.60;;
23573;SDS011;11965;53.640;10.050;2022-08-11T13:53:58;1.77;;;1.33;;
23573;SDS011;11965;53.640;10.050;2022-08-11T13:56:25;2.17;;;1.85;;
23573;SDS011;11965;53.640;10.050;2022-08-11T13:58:52;1.60;;;1.50;;
23573;SDS011;11965;53.640;10.050;2022-08-11T14:01:19;1.67;;;1.50;;
23573;SDS011;11965;53.640;10.050;2022-08-11T14:03:46;1.67;;;1.23;;
23573;SDS011;11965;53.640;10.050;2022-08-11T14:06:13;1.83;;;1.50;;
23573;SDS011;11965;53.640;10.050;2022-08-11T14:08:42;2.25;;;1.40;;
23573;SDS011;11965;53.640;10.050;2022-08-11T14:11:09;3.00;;;1.38;;
23573;SDS011;11965;53.640;10.050;2022-08-11T14:13:55;1.30;;;1.20;;
23573;SDS011;11965;53.640;10.050;2022-08-11T14:16:23;2.45;;;1.50;;
23573;SDS011;11965;53.640;10.050;2022-08-11T14:18:53;2.45;;;1.58;;
23573;SDS011;11965;53.640;10.050;2022-08-11T14:21:22;4.25;;;1.30;;
23573;SDS011;11965;53.640;10.050;2022-08-11T14:24:08;1.50;;;1.40;;
23573;SDS011;11965;53.640;10.050;2022-08-11T14:26:36;7.18;;;1.58;;
23573;SDS011;11965;53.640;10.050;2022-08-11T14:29:08;1.70;;;1.42;;
23573;SDS011;11965;53.640;10.050;2022-08-11T14:31:39;4.35;;;1.88;;
23573;SDS011;11965;53.640;10.050;2022-08-11T14:34:09;9.38;;;1.60;;
23573;SDS011;11965;53.640;10.050;2022-08-11T14:36:39;2.38;;;1.48;;
23573;SDS011;11965;53.640;10.050;2022-08-11T14:39:09;3.53;;;1.38;;
23573;SDS011;11965;53.640;10.050;2022-08-11T14:41:37;2.35;;;1.30;;
23573;SDS011;11965;53.640;10.050;2022-08-11T14:44:24;5.88;;;1.63;;
23573;SDS011;11965;53.640;10.050;2022-08-11T14:47:09;1.67;;;1.58;;
23573;SDS011;11965;53.640;10.050;2022-08-11T14:49:39;4.38;;;1.75;;
23573;SDS011;11965;53.640;10.050;2022-08-11T14:52:06;6.10;;;1.73;;
23573;SDS011;11965;53.640;10.050;2022-08-11T14:54:41;1.50;;;1.40;;
23573;SDS011;11965;53.640;10.050;2022-08-11T14:57:28;3.72;;;1.60;;
23573;SDS011;11965;53.640;10.050;2022-08-11T14:59:57;1.48;;;1.38;;
23573;SDS011;11965;53.640;10.050;2022-08-11T15:02:26;2.00;;;1.55;;
23573;SDS011;11965;53.640;10.050;2022-08-11T15:05:11;4.63;;;1.55;;
23573;SDS011;11965;53.640;10.050;2022-08-11T15:07:37;4.70;;;1.90;;
23573;SDS011;11965;53.640;10.050;2022-08-11T15:10:04;1.98;;;1.63;;
23573;SDS011;11965;53.640;10.050;2022-08-11T15:12:32;1.92;;;1.50;;
23573;SDS011;11965;53.640;10.050;2022-08-11T15:14:59;4.57;;;1.90;;
23573;SDS011;11965;53.640;10.050;2022-08-11T15:17:45;2.47;;;1.92;;
23573;SDS011;11965;53.640;10.050;2022-08-11T15:20:16;3.60;;;1.52;;
23573;SDS011;11965;53.640;10.050;2022-08-11T15:23:02;2.92;;;1.95;;
23573;SDS011;11965;53.640;10.050;2022-08-11T15:25:52;4.70;;;1.80;;
23573;SDS011;11965;53.640;10.050;2022-08-11T15:28:22;3.97;;;1.83;;
23573;SDS011;11965;53.640;10.050;2022-08-11T15:31:08;1.63;;;1.52;;
23573;SDS011;11965;53.640;10.050;2022-08-11T15:33:56;1.95;;;1.60;;
23573;SDS011;11965;53.640;10.050;2022-08-11T15:36:44;3.05;;;1.58;;
23573;SDS011;11965;53.640;10.050;2022-08-11T15:39:38;4.07;;;1.98;;
23573;SDS011;11965;53.640;10.050;2022-08-11T15:42:29;1.60;;;1.50;;
23573;SDS011;11965;53.640;10.050;2022-08-11T15:45:15;1.92;;;1.73;;
23573;SDS011;11965;53.640;10.050;2022-08-11T15:48:05;5.07;;;1.73;;
23573;SDS011;11965;53.640;10.050;2022-08-11T15:50:33;2.53;;;1.60;;
23573;SDS011;11965;53.640;10.050;2022-08-11T15:53:08;2.13;;;1.90;;
23573;SDS011;11965;53.640;10.050;2022-08-11T15:55:42;2.60;;;1.90;;
23573;SDS011;11965;53.640;10.050;2022-08-11T15:58:09;7.75;;;1.90;;
23573;SDS011;11965;53.640;10.050;2022-08-11T16:00:55;2.40;;;1.92;;
23573;SDS011;11965;53.640;10.050;2022-08-11T16:03:50;3.92;;;1.55;;
23573;SDS011;11965;53.640;10.050;2022-08-11T16:06:38;2.45;;;1.58;;
23573;SDS011;11965;53.640;10.050;2022-08-11T16:09:08;4.50;;;1.70;;
23573;SDS011;11965;53.640;10.050;2022-08-11T16:11:35;3.80;;;1.73;;
23573;SDS011;11965;53.640;10.050;2022-08-11T16:14:02;1.80;;;1.55;;
23573;SDS011;11965;53.640;10.050;2022-08-11T16:16:48;2.80;;;1.80;;
23573;SDS011;11965;53.640;10.050;2022-08-11T16:19:17;3.40;;;1.70;;
23573;SDS011;11965;53.640;10.050;2022-08-11T16:21:44;5.28;;;1.50;;
23573;SDS011;11965;53.640;10.050;2022-08-11T16:24:14;3.60;;;1.65;;
23573;SDS011;11965;53.640;10.050;2022-08-11T16:26:41;2.97;;;1.65;;
23573;SDS011;11965;53.640;10.050;2022-08-11T16:29:07;2.10;;;1.48;;
23573;SDS011;11965;53.640;10.050;2022-08-11T16:31:35;2.90;;;1.63;;
23573;SDS011;11965;53.640;10.050;2022-08-11T16:34:03;1.55;;;1.45;;
23573;SDS011;11965;53.640;10.050;2022-08-11T16:36:29;3.28;;;1.80;;
23573;SDS011;11965;53.640;10.050;2022-08-11T16:39:14;4.95;;;1.67;;
23573;SDS011;11965;53.640;10.050;2022-08-11T16:41:42;2.90;;;1.77;;
23573;SDS011;11965;53.640;10.050;2022-08-11T16:44:27;4.90;;;1.75;;
23573;SDS011;11965;53.640;10.050;2022-08-11T16:47:14;3.65;;;1.58;;
23573;SDS011;11965;53.640;10.050;2022-08-11T16:49:46;2.47;;;1.88;;
23573;SDS011;11965;53.640;10.050;2022-08-11T16:52:18;4.95;;;1.60;;
23573;SDS011;11965;53.640;10.050;2022-08-11T16:54:43;3.10;;;1.40;;
23573;SDS011;11965;53.640;10.050;2022-08-11T16:57:16;4.07;;;1.83;;
23573;SDS011;11965;53.640;10.050;2022-08-11T17:00:06;3.45;;;1.50;;
23573;SDS011;11965;53.640;10.050;2022-08-11T17:02:42;3.35;;;1.50;;
23573;SDS011;11965;53.640;10.050;2022-08-11T17:05:29;2.92;;;1.60;;
23573;SDS011;11965;53.640;10.050;2022-08-11T17:08:17;3.33;;;1.73;;
23573;SDS011;11965;53.640;10.050;2022-08-11T17:11:08;2.90;;;1.42;;
23573;SDS011;11965;53.640;10.050;2022-08-11T17:13:56;4.63;;;1.48;;
23573;SDS011;11965;53.640;10.050;2022-08-11T17:16:34;2.05;;;1.50;;
23573;SDS011;11965;53.640;10.050;2022-08-11T17:19:16;3.25;;;1.40;;
23573;SDS011;11965;53.640;10.050;2022-08-11T17:21:47;2.40;;;1.43;;
23573;SDS011;11965;53.640;10.050;2022-08-11T17:24:33;2.85;;;1.33;;
23573;SDS011;11965;53.640;10.050;2022-08-11T17:27:02;3.53;;;1.60;;
23573;SDS011;11965;53.640;10.050;2022-08-11T17:29:38;5.60;;;1.65;;
23573;SDS011;11965;53.640;10.050;2022-08-11T17:32:10;3.17;;;1.50;;
23573;SDS011;11965;53.640;10.050;2022-08-11T17:34:58;2.30;;;1.80;;
23573;SDS011;11965;53.640;10.050;2022-08-11T17:37:45;1.50;;;1.40;;
23573;SDS011;11965;53.640;10.050;2022-08-11T17:40:14;4.97;;;1.80;;
23573;SDS011;11965;53.640;10.050;2022-08-11T17:42:48;2.33;;;1.58;;
23573;SDS011;11965;53.640;10.050;2022-08-11T17:45:35;1.98;;;1.50;;
23573;SDS011;11965;53.640;10.050;2022-08-11T17:48:25;2.45;;;1.40;;
23573;SDS011;11965;53.640;10.050;2022-08-11T17:50:54;4.85;;;1.80;;
23573;SDS011;11965;53.640;10.050;2022-08-11T17:53:27;2.38;;;1.90;;
23573;SDS011;11965;53.640;10.050;2022-08-11T17:56:13;2.38;;;1.30;;
23573;SDS011;11965;53.640;10.050;2022-08-11T17:58:59;6.75;;;1.40;;
23573;SDS011;11965;53.640;10.050;2022-08-11T18:01:45;3.38;;;1.60;;
23573;SDS011;11965;53.640;10.050;2022-08-11T18:04:13;1.67;;;1.25;;
23573;SDS011;11965;53.640;10.050;2022-08-11T18:06:40;1.58;;;1.33;;
23573;SDS011;11965;53.640;10.050;2022-08-11T18:09:12;3.47;;;1.45;;
23573;SDS011;11965;53.640;10.050;2022-08-11T18:12:03;3.53;;;1.52;;
23573;SDS011;11965;53.640;10.050;2022-08-11T18:14:52;1.83;;;1.33;;
23573;SDS011;11965;53.640;10.050;2022-08-11T18:17:38;1.52;;;1.42;;
23573;SDS011;11965;53.640;10.050;2022-08-11T18:20:24;2.88;;;1.33;;
23573;SDS011;11965;53.640;10.050;2022-08-11T18:23:10;2.35;;;1.55;;
23573;SDS011;11965;53.640;10.050;2022-08-11T18:26:01;2.75;;;1.50;;
23573;SDS011;11965;53.640;10.050;2022-08-11T18:28:49;2.88;;;1.25;;
23573;SDS011;11965;53.640;10.050;2022-08-11T18:31:37;3.15;;;1.50;;
23573;SDS011;11965;53.640;10.050;2022-08-11T18:34:30;2.47;;;1.45;;
23573;SDS011;11965;53.640;10.050;2022-08-11T18:37:18;3.95;;;1.70;;
23573;SDS011;11965;53.640;10.050;2022-08-11T18:40:13;5.18;;;1.50;;
23573;SDS011;11965;53.640;10.050;2022-08-11T18:43:01;3.63;;;1.50;;
23573;SDS011;11965;53.640;10.050;2022-08-11T18:45:51;1.95;;;1.50;;
23573;SDS011;11965;53.640;10.050;2022-08-11T18:48:38;2.03;;;1.30;;
23573;SDS011;11965;53.640;10.050;2022-08-11T18:51:30;1.92;;;1.60;;
23573;SDS011;11965;53.640;10.050;2022-08-11T18:54:14;2.83;;;1.15;;
23573;SDS011;11965;53.640;10.050;2022-08-11T18:57:01;3.97;;;1.45;;
23573;SDS011;11965;53.640;10.050;2022-08-11T18:59:49;5.32;;;1.70;;
23573;SDS011;11965;53.640;10.050;2022-08-11T19:02:36;1.50;;;1.30;;